Time;durP1;ratioP1;P1;durP2;ratioP2;P2;SDS_P1;SDS_P2;PMS_P1;PMS_P2;Temp;Humidity;BMP_temperature;BMP_pressure;BME280_temperature;BME280_humidity;BME280_pressure;Samples;Min_cycle;Max_cycle;Signal;HPM_P1;HPM_P2
2023/11/22 00:02:28;;;;;;;36.05;34.20;;;;;;;;;;5028244;28;20064;-51
2023/11/22 00:04:54;;;;;;;37.33;35.42;;;;;;;;;;5024905;28;20574;-53
2023/11/22 00:07:19;;;;;;;47.10;41.65;;;;;;;;;;5027468;28;20120;-52
2023/11/22 00:09:46;;;;;;;45.83;43.50;;;;;;;;;;5023774;28;20037;-54
2023/11/22 00:12:11;;;;;;;42.75;40.58;;;;;;;;;;5025056;28;20521;-53
2023/11/22 00:14:37;;;;;;;43.33;40.72;;;;;;;;;;5026812;28;20029;-53
2023/11/22 00:17:02;;;;;;;41.40;39.15;;;;;;;;;;5026259;28;20492;-52
2023/11/22 00:19:28;;;;;;;36.30;34.42;;;;;;;;;;5028036;28;20052;-53
2023/11/22 00:21:53;;;;;;;38.70;36.70;;;;;;;;;;5027317;28;20637;-54
2023/11/22 00:24:18;;;;;;;37.67;35.75;;;;;;;;;;5022333;28;20037;-52
2023/11/22 00:26:43;;;;;;;37.95;36.00;;;;;;;;;;5024472;28;20041;-53
2023/11/22 00:29:09;;;;;;;44.58;42.30;;;;;;;;;;5024791;28;20029;-53
2023/11/22 00:31:34;;;;;;;45.40;43.10;;;;;;;;;;5027689;28;20025;-53
2023/11/22 00:34:00;;;;;;;42.28;40.13;;;;;;;;;;5027183;28;20566;-53
2023/11/22 00:36:25;;;;;;;45.20;42.90;;;;;;;;;;5024757;28;20049;-55
2023/11/22 00:38:51;;;;;;;47.05;44.65;;;;;;;;;;5023957;28;20025;-50
2023/11/22 00:41:16;;;;;;;45.17;42.85;;;;;;;;;;5024977;28;20111;-53
2023/11/22 00:43:42;;;;;;;44.80;42.53;;;;;;;;;;5025193;28;20068;-51
2023/11/22 00:46:07;;;;;;;45.90;43.55;;;;;;;;;;5025291;28;20029;-51
2023/11/22 00:48:32;;;;;;;47.10;44.70;;;;;;;;;;5008913;28;20615;-48
2023/11/22 00:50:58;;;;;;;47.13;44.75;;;;;;;;;;5027898;28;20336;-48
2023/11/22 00:53:23;;;;;;;45.30;43.00;;;;;;;;;;5023006;28;20075;-48
2023/11/22 00:55:49;;;;;;;44.58;42.28;;;;;;;;;;5024741;28;20037;-50
2023/11/22 00:58:15;;;;;;;43.72;41.53;;;;;;;;;;5027546;28;20037;-51
2023/11/22 01:00:40;;;;;;;42.58;40.25;;;;;;;;;;5024881;28;20030;-54
2023/11/22 01:03:08;;;;;;;39.95;37.88;;;;;;;;;;5024333;28;20047;-50
2023/11/22 01:05:34;;;;;;;40.13;37.78;;;;;;;;;;5022987;28;20241;-52
2023/11/22 01:07:59;;;;;;;40.88;38.75;;;;;;;;;;5022749;28;20117;-52
2023/11/22 01:10:25;;;;;;;37.60;35.63;;;;;;;;;;5024052;28;20037;-51
2023/11/22 01:12:50;;;;;;;35.83;33.95;;;;;;;;;;5024767;28;20418;-49
2023/11/22 01:15:16;;;;;;;35.78;33.85;;;;;;;;;;5025222;28;20126;-51
2023/11/22 01:17:41;;;;;;;34.95;33.13;;;;;;;;;;5027398;28;20021;-50
2023/11/22 01:20:11;;;;;;;32.75;31.05;;;;;;;;;;5024372;28;20045;-52
2023/11/22 01:22:37;;;;;;;32.00;30.33;;;;;;;;;;5024062;28;20793;-51
2023/11/22 01:25:04;;;;;;;30.40;28.77;;;;;;;;;;5023896;28;20037;-51
2023/11/22 01:27:30;;;;;;;31.15;29.52;;;;;;;;;;5024366;28;20030;-55
2023/11/22 01:29:55;;;;;;;31.73;30.08;;;;;;;;;;5022278;28;20040;-52
2023/11/22 01:32:21;;;;;;;30.50;28.90;;;;;;;;;;5025752;28;20040;-55
2023/11/22 01:34:46;;;;;;;30.85;29.23;;;;;;;;;;5007215;28;20033;-51
2023/11/22 01:37:12;;;;;;;33.35;31.55;;;;;;;;;;5021334;28;20040;-53
2023/11/22 01:39:40;;;;;;;31.05;29.45;;;;;;;;;;5022628;28;20129;-53
2023/11/22 01:42:06;;;;;;;32.08;30.38;;;;;;;;;;5024789;28;20590;-52
2023/11/22 01:44:31;;;;;;;33.35;31.65;;;;;;;;;;5021160;28;20028;-53
2023/11/22 01:46:57;;;;;;;31.85;30.17;;;;;;;;;;5024883;28;20141;-52
2023/11/22 01:49:23;;;;;;;35.25;33.38;;;;;;;;;;5022748;28;20087;-54
2023/11/22 01:51:49;;;;;;;35.63;33.80;;;;;;;;;;5024208;28;20091;-52
2023/11/22 01:54:17;;;;;;;34.50;32.25;;;;;;;;;;5023246;28;20037;-55
2023/11/22 01:56:44;;;;;;;33.40;31.60;;;;;;;;;;5022763;28;20101;-52
2023/11/22 01:59:09;;;;;;;32.97;31.20;;;;;;;;;;5025104;28;20116;-51
2023/11/22 02:01:35;;;;;;;31.13;29.42;;;;;;;;;;5024680;28;20065;-49
2023/11/22 02:04:00;;;;;;;31.13;29.42;;;;;;;;;;5024735;28;20549;-51
2023/11/22 02:06:26;;;;;;;31.88;29.88;;;;;;;;;;5023265;28;20048;-54
2023/11/22 02:08:52;;;;;;;31.95;30.25;;;;;;;;;;5023511;28;20029;-54
2023/11/22 02:11:22;;;;;;;32.70;30.88;;;;;;;;;;5019188;28;20034;-52
2023/11/22 02:13:51;;;;;;;33.38;31.58;;;;;;;;;;5025670;28;20029;-53
2023/11/22 02:16:17;;;;;;;31.30;29.63;;;;;;;;;;5023094;28;20068;-48
2023/11/22 02:18:45;;;;;;;32.53;30.77;;;;;;;;;;5025830;28;20056;-49
2023/11/22 02:21:10;;;;;;;33.50;31.60;;;;;;;;;;5021634;28;20041;-50
2023/11/22 02:23:36;;;;;;;32.88;31.10;;;;;;;;;;5027115;28;20485;-52
2023/11/22 02:26:02;;;;;;;31.65;29.92;;;;;;;;;;5027734;28;20060;-48
2023/11/22 02:28:27;;;;;;;30.33;28.67;;;;;;;;;;5029650;28;20040;-52
2023/11/22 02:30:54;;;;;;;30.17;28.48;;;;;;;;;;5029416;28;20053;-51
2023/11/22 02:33:20;;;;;;;30.58;28.85;;;;;;;;;;5027565;28;20136;-48
2023/11/22 02:35:45;;;;;;;29.38;27.77;;;;;;;;;;5028328;28;20112;-48
2023/11/22 02:38:10;;;;;;;28.75;27.20;;;;;;;;;;5025501;28;20037;-50
2023/11/22 02:40:36;;;;;;;28.67;27.17;;;;;;;;;;5025668;28;20037;-50
2023/11/22 02:43:07;;;;;;;30.70;29.10;;;;;;;;;;5021890;28;20040;-51
2023/11/22 02:45:33;;;;;;;29.55;27.95;;;;;;;;;;5023113;28;20103;-51
2023/11/22 02:47:59;;;;;;;28.98;27.38;;;;;;;;;;5027722;28;20038;-50
2023/11/22 02:50:25;;;;;;;30.80;29.13;;;;;;;;;;5032550;28;20164;-52
2023/11/22 02:52:50;;;;;;;29.83;28.23;;;;;;;;;;5027999;28;20041;-52
2023/11/22 02:55:16;;;;;;;29.45;27.90;;;;;;;;;;5025974;28;20103;-48
2023/11/22 02:57:41;;;;;;;29.75;28.15;;;;;;;;;;5027496;28;20116;-48
2023/11/22 03:00:08;;;;;;;29.75;28.15;;;;;;;;;;5026226;28;20033;-52
2023/11/22 03:02:34;;;;;;;29.48;27.92;;;;;;;;;;5031698;28;20045;-52
2023/11/22 03:05:00;;;;;;;29.95;28.35;;;;;;;;;;5030305;28;20045;-53
2023/11/22 03:07:26;;;;;;;30.38;28.77;;;;;;;;;;5032791;28;20033;-52
2023/11/22 03:09:52;;;;;;;29.90;28.30;;;;;;;;;;5031428;28;20044;-49
2023/11/22 03:12:20;;;;;;;31.38;29.67;;;;;;;;;;5030590;28;20093;-50
2023/11/22 03:14:45;;;;;;;28.33;26.77;;;;;;;;;;5031223;28;20076;-50
2023/11/22 03:17:11;;;;;;;30.80;29.20;;;;;;;;;;5027848;28;20057;-52
2023/11/22 03:19:36;;;;;;;29.77;28.13;;;;;;;;;;5028991;28;20095;-53
2023/11/22 03:22:04;;;;;;;29.02;27.33;;;;;;;;;;5027212;28;20034;-48
2023/11/22 03:24:30;;;;;;;27.00;25.60;;;;;;;;;;5027161;28;20044;-53
2023/11/22 03:26:58;;;;;;;28.40;26.90;;;;;;;;;;5027957;28;20033;-52
2023/11/22 03:29:25;;;;;;;28.95;27.27;;;;;;;;;;5030629;28;20033;-48
2023/11/22 03:31:50;;;;;;;29.70;28.10;;;;;;;;;;5031841;28;20064;-49
2023/11/22 03:34:16;;;;;;;29.27;27.77;;;;;;;;;;5026491;28;20117;-50
2023/11/22 03:36:42;;;;;;;31.58;29.88;;;;;;;;;;5024778;28;20108;-51
2023/11/22 03:39:07;;;;;;;33.28;31.58;;;;;;;;;;5029515;28;20072;-49
2023/11/22 03:41:33;;;;;;;30.55;28.88;;;;;;;;;;5028375;28;20057;-54
2023/11/22 03:43:58;;;;;;;27.98;26.52;;;;;;;;;;5029385;28;20480;-52
2023/11/22 03:46:24;;;;;;;27.27;25.85;;;;;;;;;;5027338;28;20499;-49
2023/11/22 03:48:49;;;;;;;29.20;27.60;;;;;;;;;;5024764;28;20032;-52
2023/11/22 03:51:15;;;;;;;27.60;26.15;;;;;;;;;;5029502;28;20032;-52
2023/11/22 03:53:41;;;;;;;28.45;26.90;;;;;;;;;;5026034;28;20074;-52
2023/11/22 03:56:06;;;;;;;28.02;26.48;;;;;;;;;;5027106;28;20475;-52
2023/11/22 03:58:32;;;;;;;28.23;26.70;;;;;;;;;;5029247;28;20671;-51
2023/11/22 04:00:58;;;;;;;26.67;25.25;;;;;;;;;;5028863;28;20124;-48
2023/11/22 04:03:23;;;;;;;27.95;26.45;;;;;;;;;;5027858;28;20048;-49
2023/11/22 04:05:49;;;;;;;27.85;26.40;;;;;;;;;;5031377;28;20041;-49
2023/11/22 04:08:15;;;;;;;28.45;26.85;;;;;;;;;;5025819;28;20036;-50
2023/11/22 04:10:40;;;;;;;28.42;26.88;;;;;;;;;;5029429;28;20112;-50
2023/11/22 04:13:06;;;;;;;28.60;26.90;;;;;;;;;;5027255;28;20128;-48
2023/11/22 04:15:31;;;;;;;26.10;24.70;;;;;;;;;;5026415;28;20115;-52
2023/11/22 04:17:57;;;;;;;26.10;24.70;;;;;;;;;;5025401;28;20470;-52
2023/11/22 04:20:22;;;;;;;27.58;26.05;;;;;;;;;;5029227;28;20041;-49
2023/11/22 04:22:48;;;;;;;27.35;25.83;;;;;;;;;;5029291;28;20040;-48
2023/11/22 04:25:13;;;;;;;28.60;27.00;;;;;;;;;;5025763;28;20040;-51
2023/11/22 04:27:39;;;;;;;28.40;26.70;;;;;;;;;;5023325;28;20925;-53
2023/11/22 04:30:13;;;;;;;28.98;27.38;;;;;;;;;;5024234;28;20047;-49
2023/11/22 04:32:38;;;;;;;29.70;28.10;;;;;;;;;;5022142;28;20093;-49
2023/11/22 04:35:05;;;;;;;28.83;27.27;;;;;;;;;;5028598;28;20246;-49
2023/11/22 04:37:32;;;;;;;29.88;28.27;;;;;;;;;;5023906;28;20036;-49
2023/11/22 04:39:58;;;;;;;30.73;29.13;;;;;;;;;;5025582;28;20033;-51
2023/11/22 04:42:23;;;;;;;31.73;30.02;;;;;;;;;;5027053;28;20700;-49
2023/11/22 04:44:49;;;;;;;31.77;29.98;;;;;;;;;;5026094;28;20041;-52
2023/11/22 04:47:14;;;;;;;32.55;30.85;;;;;;;;;;5024758;28;20405;-51
2023/11/22 04:49:39;;;;;;;32.42;30.73;;;;;;;;;;5025684;28;20033;-53
2023/11/22 04:52:05;;;;;;;32.67;30.88;;;;;;;;;;5025415;28;20052;-49
2023/11/22 04:54:31;;;;;;;33.60;31.75;;;;;;;;;;5027324;28;20038;-50
2023/11/22 04:56:57;;;;;;;33.13;31.33;;;;;;;;;;5029921;28;20037;-52
2023/11/22 04:59:22;;;;;;;32.40;30.70;;;;;;;;;;5029185;28;20037;-52
2023/11/22 05:01:48;;;;;;;33.42;31.73;;;;;;;;;;5027973;28;20118;-51
2023/11/22 05:04:14;;;;;;;32.17;30.48;;;;;;;;;;5024428;28;20045;-51
2023/11/22 05:06:39;;;;;;;32.38;30.67;;;;;;;;;;5029485;28;20052;-51
2023/11/22 05:09:05;;;;;;;32.15;30.45;;;;;;;;;;5024400;28;20040;-50
2023/11/22 05:11:31;;;;;;;33.50;31.70;;;;;;;;;;5023911;28;20348;-48
2023/11/22 05:13:56;;;;;;;32.63;30.92;;;;;;;;;;5027896;28;20379;-50
2023/11/22 05:16:23;;;;;;;31.80;30.13;;;;;;;;;;5024177;28;20652;-51
2023/11/22 05:18:49;;;;;;;32.20;30.50;;;;;;;;;;5027761;28;20032;-53
2023/11/22 05:21:15;;;;;;;31.77;30.08;;;;;;;;;;5026998;28;20121;-52
2023/11/22 05:23:40;;;;;;;30.77;29.13;;;;;;;;;;5025212;28;20178;-52
2023/11/22 05:26:05;;;;;;;32.25;30.35;;;;;;;;;;5026711;28;20151;-52
2023/11/22 05:28:31;;;;;;;31.92;30.23;;;;;;;;;;5022949;28;20062;-52
2023/11/22 05:30:57;;;;;;;30.88;29.27;;;;;;;;;;5023935;28;20083;-53
2023/11/22 05:33:23;;;;;;;30.98;29.33;;;;;;;;;;5026455;28;20472;-53
2023/11/22 05:35:49;;;;;;;32.03;30.35;;;;;;;;;;5022729;28;20037;-52
2023/11/22 05:38:14;;;;;;;31.42;29.83;;;;;;;;;;5025529;28;20037;-53
2023/11/22 05:40:41;;;;;;;28.58;27.08;;;;;;;;;;5012296;28;20029;-51
2023/11/22 05:43:08;;;;;;;29.80;28.08;;;;;;;;;;5027787;28;20025;-48
2023/11/22 05:45:34;;;;;;;27.90;26.40;;;;;;;;;;5023538;28;20061;-50
2023/11/22 05:48:00;;;;;;;28.52;27.02;;;;;;;;;;5027870;28;20040;-54
2023/11/22 05:50:25;;;;;;;28.10;26.60;;;;;;;;;;5027689;28;20036;-52
2023/11/22 05:52:51;;;;;;;28.15;26.65;;;;;;;;;;5023742;28;20029;-54
2023/11/22 05:55:18;;;;;;;29.25;27.70;;;;;;;;;;5022945;28;20037;-52
2023/11/22 05:57:43;;;;;;;26.90;25.38;;;;;;;;;;5024607;28;20113;-52
2023/11/22 06:00:09;;;;;;;26.52;25.13;;;;;;;;;;5027087;28;20125;-54
2023/11/22 06:02:37;;;;;;;26.90;25.50;;;;;;;;;;5020622;28;20042;-54
2023/11/22 06:05:03;;;;;;;26.52;25.05;;;;;;;;;;5026150;28;20033;-54
2023/11/22 06:07:29;;;;;;;25.42;24.08;;;;;;;;;;5022208;28;20068;-54
2023/11/22 06:09:54;;;;;;;25.02;23.63;;;;;;;;;;5021971;28;20037;-52
2023/11/22 06:12:20;;;;;;;25.60;24.23;;;;;;;;;;5023751;28;20104;-52
2023/11/22 06:14:46;;;;;;;26.23;24.83;;;;;;;;;;5022367;28;20113;-54
2023/11/22 06:17:12;;;;;;;25.15;23.75;;;;;;;;;;5019648;28;20034;-53
2023/11/22 06:19:37;;;;;;;24.27;22.98;;;;;;;;;;5021106;28;20049;-48
2023/11/22 06:22:03;;;;;;;25.23;23.75;;;;;;;;;;5020344;28;20033;-51
2023/11/22 06:24:28;;;;;;;26.30;24.80;;;;;;;;;;5019832;28;20057;-52
2023/11/22 06:26:54;;;;;;;25.27;23.92;;;;;;;;;;5019522;28;20037;-50
2023/11/22 06:29:20;;;;;;;24.65;23.10;;;;;;;;;;5020289;28;20041;-53
2023/11/22 06:31:45;;;;;;;25.20;23.80;;;;;;;;;;5025176;28;20056;-52
2023/11/22 06:34:12;;;;;;;25.00;23.65;;;;;;;;;;5020179;28;20167;-52
2023/11/22 06:36:37;;;;;;;26.35;24.95;;;;;;;;;;5017345;28;20092;-53
2023/11/22 06:39:04;;;;;;;23.90;22.60;;;;;;;;;;5018453;28;20037;-55
2023/11/22 06:41:30;;;;;;;25.75;24.35;;;;;;;;;;5013369;28;20107;-51
2023/11/22 06:43:55;;;;;;;25.27;23.88;;;;;;;;;;5017774;28;20042;-54
2023/11/22 06:46:22;;;;;;;24.27;22.98;;;;;;;;;;5018926;28;20041;-53
2023/11/22 06:48:49;;;;;;;26.42;24.95;;;;;;;;;;5020442;28;20042;-51
2023/11/22 06:51:14;;;;;;;25.50;24.10;;;;;;;;;;5020515;28;20088;-54
2023/11/22 06:53:40;;;;;;;23.98;22.67;;;;;;;;;;5019811;28;20065;-52
2023/11/22 06:56:06;;;;;;;24.08;22.77;;;;;;;;;;5018724;28;20108;-55
2023/11/22 06:58:31;;;;;;;25.08;23.67;;;;;;;;;;5021563;28;20044;-52
2023/11/22 07:00:57;;;;;;;24.25;22.95;;;;;;;;;;5018278;28;20393;-51
2023/11/22 07:03:22;;;;;;;25.23;23.83;;;;;;;;;;5018912;28;20459;-54
2023/11/22 07:05:48;;;;;;;24.50;23.10;;;;;;;;;;5020669;28;20030;-55
2023/11/22 07:08:16;;;;;;;24.50;23.08;;;;;;;;;;5021177;28;20037;-56
2023/11/22 07:10:41;;;;;;;24.25;22.85;;;;;;;;;;5022295;28;20052;-56
2023/11/22 07:13:07;;;;;;;23.25;22.00;;;;;;;;;;5020332;28;20030;-54
2023/11/22 07:15:32;;;;;;;24.33;23.02;;;;;;;;;;5007524;28;20072;-56
2023/11/22 07:17:58;;;;;;;24.73;23.33;;;;;;;;;;5017661;28;20032;-52
2023/11/22 07:20:23;;;;;;;24.98;23.58;;;;;;;;;;5019846;28;20613;-55
2023/11/22 07:22:54;;;;;;;23.88;22.58;;;;;;;;;;5018772;28;20533;-53
2023/11/22 07:25:20;;;;;;;24.48;23.15;;;;;;;;;;5018720;28;20049;-51
2023/11/22 07:27:47;;;;;;;24.70;23.40;;;;;;;;;;5021474;28;20033;-53
2023/11/22 07:30:15;;;;;;;24.70;23.30;;;;;;;;;;5021247;28;20391;-54
2023/11/22 07:32:41;;;;;;;24.25;22.95;;;;;;;;;;5015172;28;20495;-52
2023/11/22 07:35:08;;;;;;;26.55;24.95;;;;;;;;;;5020523;28;20045;-51
2023/11/22 07:37:35;;;;;;;25.00;23.67;;;;;;;;;;5021880;28;20034;-53
2023/11/22 07:40:03;;;;;;;26.10;24.58;;;;;;;;;;5019925;28;20037;-52
2023/11/22 07:42:29;;;;;;;24.48;23.08;;;;;;;;;;5021343;28;20583;-50
2023/11/22 07:44:56;;;;;;;25.17;23.88;;;;;;;;;;5024538;28;20069;-53
2023/11/22 07:47:22;;;;;;;25.05;23.70;;;;;;;;;;5022566;28;20036;-51
2023/11/22 07:49:48;;;;;;;28.67;26.13;;;;;;;;;;5022911;28;20053;-53
2023/11/22 07:52:14;;;;;;;27.95;26.48;;;;;;;;;;5019306;28;20026;-52
2023/11/22 07:54:40;;;;;;;30.35;28.55;;;;;;;;;;5021360;28;20045;-48
2023/11/22 07:57:07;;;;;;;31.10;29.35;;;;;;;;;;5021479;28;20045;-49
2023/11/22 07:59:32;;;;;;;29.67;28.10;;;;;;;;;;5017634;28;20032;-53
2023/11/22 08:01:58;;;;;;;31.38;29.65;;;;;;;;;;5023363;28;20041;-53
2023/11/22 08:04:24;;;;;;;29.25;27.73;;;;;;;;;;5017114;28;20041;-52
2023/11/22 08:06:51;;;;;;;29.38;27.83;;;;;;;;;;5024845;28;20108;-48
2023/11/22 08:09:17;;;;;;;30.20;28.60;;;;;;;;;;5021531;28;20125;-50
2023/11/22 08:11:42;;;;;;;30.98;29.33;;;;;;;;;;5021312;28;20064;-50
2023/11/22 08:14:08;;;;;;;31.42;29.70;;;;;;;;;;5023653;28;20060;-52
2023/11/22 08:16:38;;;;;;;32.05;30.27;;;;;;;;;;5022944;28;20033;-48
2023/11/22 08:19:05;;;;;;;32.03;30.33;;;;;;;;;;5023005;28;20060;-50
2023/11/22 08:21:30;;;;;;;31.85;30.15;;;;;;;;;;5021409;28;20479;-55
2023/11/22 08:23:56;;;;;;;30.77;29.05;;;;;;;;;;5022433;28;20061;-52
2023/11/22 08:26:21;;;;;;;31.75;29.85;;;;;;;;;;5020647;28;20041;-54
2023/11/22 08:28:46;;;;;;;32.53;30.77;;;;;;;;;;5020414;28;20030;-54
2023/11/22 08:31:12;;;;;;;31.70;30.00;;;;;;;;;;5019616;28;20026;-54
2023/11/22 08:33:38;;;;;;;31.00;29.35;;;;;;;;;;5021965;28;20056;-52
2023/11/22 08:36:08;;;;;;;32.08;30.40;;;;;;;;;;5023427;28;20033;-50
2023/11/22 08:38:34;;;;;;;34.22;32.47;;;;;;;;;;5022721;28;20029;-52
2023/11/22 08:41:05;;;;;;;33.20;31.48;;;;;;;;;;5022311;28;20034;-54
2023/11/22 08:43:31;;;;;;;34.55;32.78;;;;;;;;;;5020265;28;20064;-53
2023/11/22 08:46:01;;;;;;;33.53;31.75;;;;;;;;;;5036618;28;20037;-52
2023/11/22 08:48:26;;;;;;;34.10;32.30;;;;;;;;;;5017436;28;20336;-52
2023/11/22 08:50:53;;;;;;;37.03;35.03;;;;;;;;;;5023351;28;20152;-53
2023/11/22 08:53:19;;;;;;;36.00;34.03;;;;;;;;;;5017972;28;20558;-52
2023/11/22 08:55:45;;;;;;;35.55;33.50;;;;;;;;;;5020066;28;20034;-51
2023/11/22 08:58:11;;;;;;;34.92;32.97;;;;;;;;;;5020112;28;20048;-49
2023/11/22 09:00:36;;;;;;;32.08;30.38;;;;;;;;;;5018880;28;20052;-52
2023/11/22 09:03:03;;;;;;;33.53;31.73;;;;;;;;;;5018295;28;20511;-52
2023/11/22 09:05:29;;;;;;;32.72;30.98;;;;;;;;;;5020188;28;20054;-53
2023/11/22 09:07:55;;;;;;;36.45;34.55;;;;;;;;;;5021064;28;20470;-50
2023/11/22 09:10:21;;;;;;;36.95;35.05;;;;;;;;;;5019670;28;20053;-52
2023/11/22 09:12:47;;;;;;;33.67;31.95;;;;;;;;;;5019442;28;20025;-53
2023/11/22 09:15:16;;;;;;;31.27;29.67;;;;;;;;;;5017830;28;20029;-48
2023/11/22 09:17:43;;;;;;;30.02;28.42;;;;;;;;;;5019116;28;20487;-52
2023/11/22 09:20:12;;;;;;;32.20;30.40;;;;;;;;;;5020743;28;20041;-54
2023/11/22 09:22:49;;;;;;;32.85;31.15;;;;;;;;;;5018501;28;20037;-53
2023/11/22 09:25:22;;;;;;;30.67;29.08;;;;;;;;;;5019381;28;20033;-53
2023/11/22 09:27:51;;;;;;;34.58;32.78;;;;;;;;;;5017798;28;20025;-54
2023/11/22 09:30:32;;;;;;;32.95;31.17;;;;;;;;;;5019666;28;20479;-53
2023/11/22 09:33:18;;;;;;;29.42;27.90;;;;;;;;;;5022014;28;20045;-54
2023/11/22 09:35:46;;;;;;;37.10;35.05;;;;;;;;;;5019102;28;20049;-50
2023/11/22 09:38:12;;;;;;;33.63;31.80;;;;;;;;;;5018406;28;20044;-52
2023/11/22 09:40:43;;;;;;;32.53;30.83;;;;;;;;;;5015187;28;20026;-50
2023/11/22 09:43:10;;;;;;;32.17;30.33;;;;;;;;;;5019340;28;20129;-52
2023/11/22 09:45:37;;;;;;;32.95;31.10;;;;;;;;;;5017167;28;20137;-49
2023/11/22 09:48:16;;;;;;;29.38;27.77;;;;;;;;;;5020845;28;20049;-50
2023/11/22 09:51:03;;;;;;;32.85;31.10;;;;;;;;;;5017234;28;20045;-51
2023/11/22 09:53:36;;;;;;;30.50;28.90;;;;;;;;;;5016823;28;20116;-50
2023/11/22 09:56:03;;;;;;;36.25;34.25;;;;;;;;;;5015808;28;20041;-51
2023/11/22 09:58:32;;;;;;;31.70;29.58;;;;;;;;;;5016401;28;20048;-53
2023/11/22 10:00:59;;;;;;;29.60;28.00;;;;;;;;;;5015404;28;20391;-54
2023/11/22 10:03:28;;;;;;;29.80;28.20;;;;;;;;;;5016443;28;20041;-49
2023/11/22 10:05:56;;;;;;;28.70;26.90;;;;;;;;;;5015279;28;20018;-52
2023/11/22 10:08:22;;;;;;;28.35;26.77;;;;;;;;;;5018320;28;20064;-48
2023/11/22 10:10:51;;;;;;;26.77;25.38;;;;;;;;;;5015402;28;20037;-49
2023/11/22 10:13:17;;;;;;;28.55;27.00;;;;;;;;;;5020170;28;20044;-51
2023/11/22 10:15:43;;;;;;;28.08;26.50;;;;;;;;;;5016997;28;20072;-51
2023/11/22 10:18:08;;;;;;;26.73;25.33;;;;;;;;;;5018701;28;20056;-50
2023/11/22 10:20:39;;;;;;;25.77;24.38;;;;;;;;;;5017874;28;20071;-51
2023/11/22 10:23:08;;;;;;;31.02;29.33;;;;;;;;;;5014152;28;20112;-49
2023/11/22 10:25:34;;;;;;;28.65;27.15;;;;;;;;;;5016043;28;20049;-49
2023/11/22 10:28:01;;;;;;;26.52;25.05;;;;;;;;;;5016887;28;20046;-50
2023/11/22 10:30:28;;;;;;;30.42;28.75;;;;;;;;;;5015493;28;20356;-49
2023/11/22 10:32:54;;;;;;;28.88;27.38;;;;;;;;;;5014392;28;20033;-46
2023/11/22 10:35:22;;;;;;;29.77;28.10;;;;;;;;;;5015884;28;20118;-52
2023/11/22 10:37:48;;;;;;;27.60;26.10;;;;;;;;;;5014225;28;20084;-52
2023/11/22 10:40:14;;;;;;;27.48;25.80;;;;;;;;;;5016277;28;20061;-54
2023/11/22 10:42:45;;;;;;;27.98;26.48;;;;;;;;;;5016083;28;20072;-52
2023/11/22 10:45:13;;;;;;;28.52;27.02;;;;;;;;;;5019506;28;20065;-49
2023/11/22 10:47:41;;;;;;;26.48;25.08;;;;;;;;;;5018188;28;20057;-53
2023/11/22 10:50:08;;;;;;;28.40;26.20;;;;;;;;;;5017449;28;20057;-54
2023/11/22 10:52:35;;;;;;;27.15;25.73;;;;;;;;;;5016121;28;20037;-54
2023/11/22 10:55:06;;;;;;;27.33;25.83;;;;;;;;;;5018256;28;20036;-53
2023/11/22 10:57:36;;;;;;;27.77;26.30;;;;;;;;;;5016734;28;20095;-50
2023/11/22 11:00:05;;;;;;;28.75;27.25;;;;;;;;;;5013527;28;20470;-51
2023/11/22 11:02:34;;;;;;;29.02;27.52;;;;;;;;;;5016165;28;20163;-52
2023/11/22 11:05:07;;;;;;;28.05;26.55;;;;;;;;;;5017044;28;20044;-49
2023/11/22 11:07:40;;;;;;;28.38;26.65;;;;;;;;;;5016383;28;20112;-51
2023/11/22 11:10:07;;;;;;;28.30;26.67;;;;;;;;;;5017511;28;20187;-51
2023/11/22 11:12:33;;;;;;;27.77;26.27;;;;;;;;;;5020319;28;20069;-54
2023/11/22 11:14:58;;;;;;;29.67;28.08;;;;;;;;;;5020198;28;20080;-54
2023/11/22 11:17:24;;;;;;;28.98;27.42;;;;;;;;;;5021693;28;20615;-53
2023/11/22 11:19:49;;;;;;;29.33;27.80;;;;;;;;;;5021362;28;20632;-52
2023/11/22 11:22:16;;;;;;;29.45;27.88;;;;;;;;;;5020461;28;20122;-53
2023/11/22 11:24:44;;;;;;;29.40;27.90;;;;;;;;;;5019358;28;20053;-55
2023/11/22 11:27:10;;;;;;;28.60;27.10;;;;;;;;;;5019258;28;20034;-55
2023/11/22 11:29:40;;;;;;;27.88;26.38;;;;;;;;;;5022291;28;20029;-55
2023/11/22 11:32:10;;;;;;;27.75;26.25;;;;;;;;;;5017075;28;20037;-54
2023/11/22 11:34:51;;;;;;;27.33;25.83;;;;;;;;;;5019327;28;20620;-54
2023/11/22 11:37:20;;;;;;;27.77;26.27;;;;;;;;;;5020347;28;20494;-56
2023/11/22 11:39:45;;;;;;;27.08;25.63;;;;;;;;;;5018373;28;20045;-54
2023/11/22 11:42:13;;;;;;;29.63;28.10;;;;;;;;;;5017618;28;20036;-50
2023/11/22 11:44:52;;;;;;;28.85;27.33;;;;;;;;;;5020998;28;20525;-52
2023/11/22 11:47:17;;;;;;;30.15;28.27;;;;;;;;;;5018170;28;20041;-49
2023/11/22 11:49:43;;;;;;;28.17;26.58;;;;;;;;;;5018031;28;20038;-51
2023/11/22 11:52:08;;;;;;;27.45;25.98;;;;;;;;;;5018500;28;20092;-54
2023/11/22 11:54:35;;;;;;;28.98;27.38;;;;;;;;;;5019426;28;20336;-54
2023/11/22 11:57:01;;;;;;;28.48;26.92;;;;;;;;;;5023034;28;20115;-53
2023/11/22 11:59:26;;;;;;;29.42;27.73;;;;;;;;;;5021944;28;20117;-54
2023/11/22 12:01:55;;;;;;;28.63;27.02;;;;;;;;;;5017648;28;20160;-49
2023/11/22 12:04:24;;;;;;;29.08;27.48;;;;;;;;;;5017288;28;20033;-52
2023/11/22 12:06:52;;;;;;;31.95;30.25;;;;;;;;;;5022323;28;20034;-53
2023/11/22 12:09:31;;;;;;;30.85;29.23;;;;;;;;;;5017109;28;20478;-55
2023/11/22 12:11:56;;;;;;;31.73;30.02;;;;;;;;;;5018282;28;20041;-51
2023/11/22 12:14:25;;;;;;;30.77;29.10;;;;;;;;;;5019913;28;20040;-51
2023/11/22 12:16:51;;;;;;;30.52;28.92;;;;;;;;;;5020206;28;20033;-51
2023/11/22 12:19:30;;;;;;;29.50;27.98;;;;;;;;;;5020671;28;20084;-51
2023/11/22 12:21:56;;;;;;;30.23;28.63;;;;;;;;;;5021528;28;20034;-51
2023/11/22 12:24:22;;;;;;;28.92;27.40;;;;;;;;;;5021254;28;20044;-51
2023/11/22 12:26:50;;;;;;;32.50;30.50;;;;;;;;;;5020886;28;20034;-51
2023/11/22 12:29:18;;;;;;;30.92;29.33;;;;;;;;;;5016523;28;20041;-54
2023/11/22 12:31:50;;;;;;;30.42;28.80;;;;;;;;;;5020616;28;20021;-54
2023/11/22 12:34:17;;;;;;;31.58;29.80;;;;;;;;;;5019464;28;20029;-54
2023/11/22 12:36:43;;;;;;;31.85;30.15;;;;;;;;;;5017704;28;20118;-54
2023/11/22 12:39:16;;;;;;;30.08;28.48;;;;;;;;;;5019429;28;20025;-55
2023/11/22 12:41:43;;;;;;;32.25;30.55;;;;;;;;;;5016714;28;20033;-53
2023/11/22 12:44:08;;;;;;;30.00;28.40;;;;;;;;;;5020671;28;20041;-51
2023/11/22 12:46:49;;;;;;;35.47;33.65;;;;;;;;;;5018862;28;20533;-53
2023/11/22 12:49:18;;;;;;;;;;;;;;;;;;5020830;28;20042;-52
2023/11/22 12:51:53;;;;;;;30.15;28.55;;;;;;;;;;5027158;28;20578;-54
2023/11/22 12:54:22;;;;;;;30.00;28.40;;;;;;;;;;5022080;28;20029;-53
2023/11/22 12:56:58;;;;;;;31.42;29.73;;;;;;;;;;5019654;28;20033;-53
2023/11/22 12:59:24;;;;;;;30.73;29.13;;;;;;;;;;5018096;28;20026;-53
2023/11/22 13:01:51;;;;;;;30.60;28.95;;;;;;;;;;5017569;28;20121;-53
2023/11/22 13:04:18;;;;;;;30.15;28.55;;;;;;;;;;5018136;28;20033;-53
2023/11/22 13:06:43;;;;;;;31.25;29.55;;;;;;;;;;5019691;28;20463;-50
2023/11/22 13:09:14;;;;;;;29.98;28.38;;;;;;;;;;5017824;28;20184;-49
2023/11/22 13:11:42;;;;;;;32.08;30.38;;;;;;;;;;5020448;28;20105;-51
2023/11/22 13:14:08;;;;;;;31.50;29.88;;;;;;;;;;5018782;28;20114;-55
2023/11/22 13:16:34;;;;;;;29.90;28.33;;;;;;;;;;5002030;28;20118;-52
2023/11/22 13:19:00;;;;;;;34.40;32.40;;;;;;;;;;5017536;28;20104;-51
2023/11/22 13:21:26;;;;;;;29.75;28.15;;;;;;;;;;5007946;28;20041;-55
2023/11/22 13:23:52;;;;;;;30.30;28.70;;;;;;;;;;5018878;28;20095;-54
2023/11/22 13:26:17;;;;;;;30.50;28.90;;;;;;;;;;5021951;28;20040;-54
2023/11/22 13:28:43;;;;;;;30.17;28.58;;;;;;;;;;5020221;28;20041;-51
2023/11/22 13:31:09;;;;;;;30.88;29.17;;;;;;;;;;5018107;28;20090;-55
2023/11/22 13:33:35;;;;;;;31.17;29.55;;;;;;;;;;5022981;28;20120;-54
2023/11/22 13:36:00;;;;;;;30.48;28.88;;;;;;;;;;5022705;28;20116;-54
2023/11/22 13:38:26;;;;;;;30.05;28.45;;;;;;;;;;5020489;28;20501;-53
2023/11/22 13:40:52;;;;;;;32.35;30.65;;;;;;;;;;5021975;28;20037;-49
2023/11/22 13:43:20;;;;;;;29.02;27.50;;;;;;;;;;5021686;28;20033;-54
2023/11/22 13:45:45;;;;;;;28.52;27.02;;;;;;;;;;5018200;28;20120;-52
2023/11/22 13:48:11;;;;;;;30.90;29.25;;;;;;;;;;5024474;28;20530;-55
2023/11/22 13:50:37;;;;;;;31.75;30.08;;;;;;;;;;5018743;28;20041;-51
2023/11/22 13:53:03;;;;;;;34.28;32.47;;;;;;;;;;5016733;28;20121;-51
2023/11/22 13:55:30;;;;;;;36.95;34.92;;;;;;;;;;5019276;28;20029;-50
2023/11/22 13:57:58;;;;;;;35.35;33.55;;;;;;;;;;5020428;28;20037;-51
2023/11/22 14:00:33;;;;;;;35.03;33.22;;;;;;;;;;5022235;28;20475;-53
2023/11/22 14:03:05;;;;;;;34.55;32.75;;;;;;;;;;5019863;28;20033;-54
2023/11/22 14:05:33;;;;;;;37.22;35.28;;;;;;;;;;5017950;28;20332;-54
2023/11/22 14:07:58;;;;;;;35.67;33.85;;;;;;;;;;5019478;28;20068;-54
2023/11/22 14:10:24;;;;;;;34.67;32.88;;;;;;;;;;5014613;28;20050;-54
2023/11/22 14:12:50;;;;;;;33.40;31.67;;;;;;;;;;5025065;28;20394;-53
2023/11/22 14:15:15;;;;;;;32.80;31.00;;;;;;;;;;5021842;28;20033;-51
2023/11/22 14:17:42;;;;;;;32.53;30.83;;;;;;;;;;5020197;28;20036;-53